3LF

Litchfield Municipal Airport

Litchfield, Illinois, USA
METAR K3LF 261335Z AUTO 07004KT 10SM CLR 10/03 A2998 RMK AO2 T01010028
Observed Flight Rules
Apr-26 @ 13:35 UTC (6 minutes ago) Visual Flight Rules
Wind Visibility Clouds
70° at 4 knots 10 miles
  • Clear skies
Temperatures Readings
Current 10°C / 50°F
Dewpoint 3°C / 37°F
Humidity 62%
Altimeter 29.98" Hg
Pressure 1015 hPa
Elevation 210
METAR K3LF 261335Z AUTO 07004KT 10SM CLR 10/03 A2998 RMK AO2 T01010028
Observed Flight Rules
Apr-26 @ 13:35 UTC
(6 minutes ago)
VFR
Wind Visibility
70° at 4 knots 10 miles
Clouds
  • Clear skies
Temperature Dewpoint
10°C / 50°F 3°C / 37°F
Humidity Altimeter Pressure
62% 29.98" Hg 1015 hPa